createdAt,value
2022-08-05T00:00:35.169Z,71.75
2022-08-05T00:01:36.090Z,72.14
2022-08-05T00:02:34.994Z,72.54
2022-08-05T00:03:34.203Z,72.14
2022-08-05T00:04:34.115Z,71.75
2022-08-05T00:06:05.257Z,72.20
2022-08-05T00:06:35.844Z,72.34
2022-08-05T00:08:00.936Z,72.01
2022-08-05T00:08:36.393Z,72.31
2022-08-05T00:09:33.962Z,72.60
2022-08-05T00:10:34.018Z,72.54
2022-08-05T00:11:35.029Z,72.44
2022-08-05T00:12:35.143Z,72.84
2022-08-05T00:13:39.037Z,73.60
2022-08-05T00:14:34.022Z,73.40
2022-08-05T00:15:56.349Z,72.80
2022-08-05T00:16:35.358Z,72.01
2022-08-05T00:17:33.906Z,72.04
2022-08-05T00:18:33.907Z,72.54
2022-08-05T00:19:40.683Z,72.64
2022-08-05T00:20:34.762Z,73.14
2022-08-05T00:21:35.997Z,72.74
2022-08-05T00:22:33.923Z,72.64
2022-08-05T00:23:46.702Z,72.54
2022-08-05T00:24:34.751Z,73.54
2022-08-05T00:25:34.599Z,73.63
2022-08-05T00:26:34.841Z,73.67
2022-08-05T00:27:36.511Z,73.63
2022-08-05T00:28:33.715Z,73.57
2022-08-05T00:29:37.955Z,73.03
2022-08-05T00:30:33.767Z,73.77
2022-08-05T00:31:53.085Z,73.77
2022-08-05T00:32:34.786Z,73.17
2022-08-05T00:34:53.259Z,73.47
2022-08-05T00:34:53.755Z,72.87
2022-08-05T00:35:34.651Z,72.47
2022-08-05T00:37:11.094Z,73.27
2022-08-05T00:37:50.399Z,73.00
2022-08-05T00:38:34.756Z,72.61
2022-08-05T00:39:37.017Z,73.27
2022-08-05T00:40:34.645Z,72.58
2022-08-05T00:41:51.593Z,72.58
2022-08-05T00:42:34.590Z,72.67
2022-08-05T00:43:47.111Z,72.58
2022-08-05T00:44:34.517Z,72.47
2022-08-05T00:45:39.009Z,72.97
2022-08-05T00:46:42.710Z,72.97
2022-08-05T00:47:56.601Z,72.74
2022-08-05T00:48:34.536Z,72.54
2022-08-05T00:49:51.487Z,72.54
2022-08-05T00:50:34.444Z,72.04
2022-08-05T00:51:50.458Z,71.94
2022-08-05T00:52:34.516Z,72.34
2022-08-05T00:54:01.263Z,72.14
2022-08-05T00:54:34.613Z,71.84
2022-08-05T00:55:42.651Z,72.24
2022-08-05T00:56:34.452Z,72.44
2022-08-05T00:57:55.409Z,72.64
2022-08-05T00:58:34.392Z,73.30
2022-08-05T00:59:42.070Z,73.40
2022-08-05T01:00:34.335Z,74.49
2022-08-05T01:01:48.695Z,74.93
2022-08-05T01:02:34.357Z,75.82
2022-08-05T01:03:34.243Z,76.35
2022-08-05T01:04:33.333Z,76.45
2022-08-05T01:05:33.297Z,77.78
2022-08-05T01:06:33.296Z,78.08
2022-08-05T01:07:33.297Z,78.48
2022-08-05T01:08:43.333Z,79.17
2022-08-05T01:09:34.241Z,78.28
2022-08-05T01:10:33.264Z,78.97
2022-08-05T01:11:37.271Z,78.58
2022-08-05T01:12:33.217Z,78.52
2022-08-05T01:13:57.896Z,78.81
2022-08-05T01:14:34.253Z,78.52
2022-08-05T01:15:36.375Z,78.12
2022-08-05T01:16:33.193Z,77.95
2022-08-05T01:17:33.161Z,79.11
2022-08-05T01:18:34.234Z,79.94
2022-08-05T01:19:57.004Z,79.81
2022-08-05T01:20:34.142Z,79.91
2022-08-05T01:21:38.254Z,80.21
2022-08-05T01:22:34.319Z,79.11
2022-08-05T01:23:34.938Z,78.45
2022-08-05T01:24:33.150Z,77.92
2022-08-05T01:25:40.866Z,78.12
2022-08-05T01:26:34.087Z,79.01
2022-08-05T01:27:33.150Z,78.72
2022-08-05T01:28:33.093Z,79.01
2022-08-05T01:29:33.099Z,79.11
2022-08-05T01:30:34.716Z,78.61
2022-08-05T01:31:32.942Z,78.91
2022-08-05T01:32:34.014Z,78.81
2022-08-05T01:33:35.657Z,78.42
2022-08-05T01:34:32.995Z,77.62
2022-08-05T01:35:51.899Z,78.22
2022-08-05T01:36:34.043Z,77.92
2022-08-05T01:37:32.959Z,77.32
2022-08-05T01:38:32.903Z,78.22
2022-08-05T01:39:46.620Z,78.65
2022-08-05T01:40:33.894Z,79.55
2022-08-05T01:41:33.057Z,79.49
2022-08-05T01:42:32.963Z,79.28
2022-08-05T01:43:32.805Z,80.32
2022-08-05T01:44:34.247Z,81.16
2022-08-05T01:45:35.055Z,81.36
2022-08-05T01:46:46.086Z,81.36
2022-08-05T01:47:39.370Z,81.06
2022-08-05T01:48:33.854Z,81.06
2022-08-05T01:50:00.308Z,81.26
2022-08-05T01:50:33.954Z,80.90
2022-08-05T01:51:32.790Z,81.49
2022-08-05T01:52:32.739Z,82.20
2022-08-05T01:53:54.745Z,82.34
2022-08-05T01:54:33.864Z,83.97
2022-08-05T01:55:36.300Z,84.27
2022-08-05T01:58:10.553Z,84.77
2022-08-05T01:58:10.896Z,85.47
2022-08-05T01:59:04.466Z,85.71
2022-08-05T02:00:03.540Z,86.51
2022-08-05T02:01:03.387Z,87.71
2022-08-05T02:02:03.421Z,88.05
2022-08-05T02:03:03.508Z,88.10
2022-08-05T02:04:03.248Z,88.55
2022-08-05T02:05:03.354Z,88.90
2022-08-05T02:06:03.721Z,88.81
2022-08-05T02:07:04.212Z,88.90
2022-08-05T02:08:03.183Z,89.55
2022-08-05T02:09:03.192Z,88.75
2022-08-05T02:10:03.163Z,89.55
2022-08-05T02:11:03.731Z,90.41
2022-08-05T02:12:03.162Z,90.30
2022-08-05T02:13:04.786Z,91.00
2022-08-05T02:14:04.109Z,91.10
2022-08-05T02:15:03.979Z,90.96
2022-08-05T02:16:03.167Z,90.26
2022-08-05T02:17:03.125Z,90.02
2022-08-05T02:18:33.179Z,89.72
2022-08-05T02:19:07.075Z,89.42
2022-08-05T02:20:03.119Z,88.82
2022-08-05T02:21:03.057Z,89.38
2022-08-05T02:22:03.061Z,88.78
2022-08-05T02:23:03.054Z,88.58
2022-08-05T02:24:03.047Z,88.78
2022-08-05T02:25:03.028Z,88.38
2022-08-05T02:26:02.976Z,88.58
2022-08-05T02:27:10.234Z,87.68
2022-08-05T02:28:04.341Z,87.28
2022-08-05T02:29:04.111Z,88.52
2022-08-05T02:30:02.993Z,89.32
2022-08-05T02:31:02.957Z,89.12
2022-08-05T02:32:04.732Z,89.82
2022-08-05T02:33:03.002Z,90.81
2022-08-05T02:34:03.000Z,90.26
2022-08-05T02:35:13.489Z,90.12
2022-08-05T02:36:03.929Z,89.32
2022-08-05T02:37:02.906Z,88.52
2022-08-05T02:38:02.864Z,88.96
2022-08-05T02:39:03.001Z,88.86
2022-08-05T02:40:02.891Z,89.11
2022-08-05T02:41:14.672Z,89.55
2022-08-05T02:42:03.859Z,89.85
2022-08-05T02:43:02.833Z,90.55
2022-08-05T02:44:06.850Z,91.09
2022-08-05T02:45:03.928Z,91.09
2022-08-05T02:46:02.973Z,91.74
2022-08-05T02:47:02.900Z,91.88
2022-08-05T02:48:09.917Z,92.52
2022-08-05T02:49:03.801Z,94.12
2022-08-05T02:50:02.789Z,94.62
2022-08-05T02:51:02.747Z,94.82
2022-08-05T02:52:04.633Z,94.43
2022-08-05T02:53:02.681Z,94.93
2022-08-05T02:54:03.929Z,93.93
2022-08-05T02:55:05.142Z,94.17
2022-08-05T02:56:02.865Z,93.27
2022-08-05T02:57:02.725Z,94.27
2022-08-05T02:58:09.833Z,94.27
2022-08-05T02:59:03.884Z,94.57
2022-08-05T03:00:03.937Z,94.51
2022-08-05T03:01:02.791Z,93.81
2022-08-05T03:02:03.072Z,94.42
2022-08-05T03:03:02.706Z,94.21
2022-08-05T03:04:11.800Z,94.82
2022-08-05T03:05:04.676Z,95.47
2022-08-05T03:08:01.008Z,94.86
2022-08-05T03:08:43.769Z,95.16
2022-08-05T03:09:37.423Z,95.32
2022-08-05T03:10:37.522Z,94.71
2022-08-05T03:11:54.998Z,94.96
2022-08-05T03:12:36.782Z,96.26
2022-08-05T03:13:52.252Z,96.02
2022-08-05T03:14:45.933Z,96.17
2022-08-05T03:15:36.661Z,94.96
2022-08-05T03:16:35.970Z,96.26
2022-08-05T03:18:59.835Z,94.66
2022-08-05T03:19:04.204Z,96.06
2022-08-05T03:20:03.921Z,95.97
2022-08-05T03:22:50.150Z,95.76
2022-08-05T03:22:52.358Z,96.36
2022-08-05T03:23:52.083Z,96.62
2022-08-05T03:24:52.316Z,96.62
2022-08-05T03:26:04.780Z,95.87
2022-08-05T03:26:53.023Z,94.97
2022-08-05T03:27:59.263Z,94.47
2022-08-05T03:28:53.007Z,93.82
2022-08-05T03:30:08.333Z,93.23
2022-08-05T03:30:53.007Z,92.93
2022-08-05T03:31:57.122Z,92.98
2022-08-05T03:32:53.039Z,92.38
2022-08-05T03:33:52.951Z,93.08
2022-08-05T03:34:51.990Z,91.74
2022-08-05T03:35:51.955Z,92.13
2022-08-05T03:36:52.285Z,92.03
2022-08-05T03:37:53.537Z,92.03
2022-08-05T03:38:53.446Z,92.13
2022-08-05T03:40:00.912Z,91.63
2022-08-05T03:40:52.989Z,91.74
2022-08-05T03:41:52.664Z,92.03
2022-08-05T03:42:52.889Z,91.69
2022-08-05T03:44:08.241Z,91.93
2022-08-05T03:44:52.989Z,92.24
2022-08-05T03:45:57.271Z,91.69
2022-08-05T03:46:51.858Z,91.74
2022-08-05T03:47:51.819Z,92.03
2022-08-05T03:48:52.811Z,92.33
2022-08-05T03:49:52.519Z,91.83
2022-08-05T03:50:51.848Z,91.83
2022-08-05T03:52:50.073Z,92.13
2022-08-05T03:55:34.715Z,91.89
2022-08-05T03:55:49.851Z,92.03
2022-08-05T03:55:50.835Z,92.03
2022-08-05T03:56:10.601Z,91.89
2022-08-05T03:56:53.744Z,91.39
2022-08-05T03:57:51.787Z,91.39
2022-08-05T03:58:51.756Z,91.25
2022-08-05T03:59:54.827Z,90.79
2022-08-05T04:00:52.517Z,90.95
2022-08-05T04:01:52.156Z,90.55
2022-08-05T04:02:52.220Z,90.65
2022-08-05T04:04:08.899Z,90.95
2022-08-05T04:05:25.196Z,90.45
2022-08-05T04:05:51.688Z,90.45
2022-08-05T04:06:51.845Z,91.15
2022-08-05T04:07:57.947Z,91.09
2022-08-05T04:08:52.676Z,90.29
2022-08-05T04:09:53.402Z,90.79
2022-08-05T04:10:51.825Z,90.79
2022-08-05T04:11:52.754Z,91.49
2022-08-05T04:12:51.668Z,90.99
2022-08-05T04:13:53.611Z,90.99
2022-08-05T04:14:51.521Z,90.84
2022-08-05T04:15:52.613Z,90.65
2022-08-05T04:16:52.573Z,90.29
2022-08-05T04:17:56.226Z,90.65
2022-08-05T04:18:54.248Z,90.95
2022-08-05T04:19:54.591Z,91.25
2022-08-05T04:20:52.463Z,90.65
2022-08-05T04:22:08.357Z,90.84
2022-08-05T04:22:52.628Z,90.05
2022-08-05T04:24:04.765Z,89.55
2022-08-05T04:24:53.183Z,90.15
2022-08-05T04:25:57.338Z,89.55
2022-08-05T04:26:51.469Z,89.89
2022-08-05T04:27:57.338Z,90.69
2022-08-05T04:28:52.365Z,91.24
2022-08-05T04:29:51.302Z,91.98
2022-08-05T04:30:51.313Z,91.98
2022-08-05T04:31:51.410Z,92.52
2022-08-05T04:32:51.354Z,92.62
2022-08-05T04:34:18.010Z,94.43
2022-08-05T04:34:52.254Z,94.53
2022-08-05T04:36:16.781Z,94.02
2022-08-05T04:36:52.202Z,94.82
2022-08-05T04:38:02.158Z,95.17
2022-08-05T04:38:52.255Z,95.17
2022-08-05T04:39:52.693Z,96.08
2022-08-05T04:40:51.242Z,95.17
2022-08-05T04:41:51.468Z,94.97
2022-08-05T04:42:51.210Z,94.57
2022-08-05T04:43:52.828Z,94.77
2022-08-05T04:44:51.202Z,94.93
2022-08-05T04:45:55.602Z,96.33
2022-08-05T04:46:51.112Z,95.08
2022-08-05T04:47:51.163Z,94.18
2022-08-05T04:48:51.670Z,94.28
2022-08-05T04:50:01.290Z,94.08
2022-08-05T04:51:01.955Z,94.43
2022-08-05T04:52:00.300Z,93.54
2022-08-05T04:52:52.115Z,93.39
2022-08-05T04:53:51.090Z,92.59
2022-08-05T04:54:51.074Z,92.29
2022-08-05T04:56:32.748Z,92.49
2022-08-05T04:56:55.268Z,92.99
2022-08-05T04:57:54.341Z,92.49
2022-08-05T04:58:51.018Z,92.39
2022-08-05T04:59:51.043Z,92.69
2022-08-05T05:00:51.242Z,92.09
2022-08-05T05:02:07.900Z,91.75
2022-08-05T05:02:52.112Z,91.95
2022-08-05T05:03:51.080Z,93.15
2022-08-05T05:04:51.420Z,91.85
2022-08-05T05:06:39.653Z,91.64
2022-08-05T05:06:57.584Z,91.85
2022-08-05T05:07:56.043Z,92.65
2022-08-05T05:08:51.063Z,93.05
2022-08-05T05:09:51.040Z,92.05
2022-08-05T05:10:56.109Z,91.95
2022-08-05T05:11:55.398Z,91.75
2022-08-05T05:12:50.939Z,92.14
2022-08-05T05:13:50.933Z,91.75
2022-08-05T05:14:51.414Z,91.64
2022-08-05T05:15:56.953Z,91.30
2022-08-05T05:16:51.851Z,91.00
2022-08-05T05:17:56.300Z,91.45
2022-08-05T05:19:16.460Z,90.91
2022-08-05T05:19:52.816Z,90.80
2022-08-05T05:20:50.840Z,91.00
2022-08-05T05:21:50.796Z,91.40
2022-08-05T05:22:50.777Z,91.80
2022-08-05T05:24:04.332Z,91.50
2022-08-05T05:24:59.114Z,91.40
2022-08-05T05:25:51.821Z,91.71
2022-08-05T05:26:51.932Z,91.20
2022-08-05T05:27:53.956Z,91.55
2022-08-05T05:28:51.787Z,91.75
2022-08-05T05:30:03.321Z,91.89
2022-08-05T05:30:51.695Z,92.94
2022-08-05T05:31:51.068Z,92.99
2022-08-05T05:32:50.762Z,91.75
2022-08-05T05:34:01.931Z,91.64
2022-08-05T05:34:52.422Z,91.95
2022-08-05T05:35:50.657Z,91.99
2022-08-05T05:36:50.694Z,91.99
2022-08-05T05:38:00.140Z,93.15
2022-08-05T05:38:51.656Z,91.90
2022-08-05T06:01:02.525Z,90.75
2022-08-05T06:01:58.983Z,90.95
2022-08-05T06:02:57.758Z,90.41
2022-08-05T06:04:02.121Z,90.55
2022-08-05T06:04:58.888Z,91.10
2022-08-05T06:05:57.854Z,90.91
2022-08-05T06:06:57.618Z,90.41
2022-08-05T06:08:02.103Z,89.95
2022-08-05T06:08:58.613Z,90.15
2022-08-05T06:10:04.474Z,89.81
2022-08-05T06:10:57.695Z,90.11
2022-08-05T06:11:59.137Z,89.81
2022-08-05T06:12:57.527Z,89.40
2022-08-05T06:13:57.540Z,89.85
2022-08-05T06:14:57.622Z,90.50
2022-08-05T06:16:31.371Z,89.61
2022-08-05T06:16:58.524Z,89.70
2022-08-05T06:17:57.512Z,89.40
2022-08-05T06:18:57.494Z,89.90
2022-08-05T06:19:59.561Z,89.90
2022-08-05T06:20:57.475Z,88.90
2022-08-05T06:21:57.495Z,88.90
2022-08-05T06:22:58.096Z,89.61
2022-08-05T06:23:57.423Z,89.70
2022-08-05T06:24:57.951Z,89.90
2022-08-05T06:26:12.812Z,90.30
2022-08-05T06:26:58.469Z,90.41
2022-08-05T06:28:11.314Z,90.11
2022-08-05T06:28:58.400Z,90.00
2022-08-05T06:30:04.499Z,89.70
2022-08-05T06:30:58.347Z,90.41
2022-08-05T06:35:15.549Z,90.96
2022-08-05T06:36:05.676Z,91.35
2022-08-05T06:41:16.717Z,95.68
2022-08-05T06:41:29.680Z,95.54
2022-08-05T06:42:29.873Z,96.34
2022-08-05T06:43:58.966Z,95.84
2022-08-05T06:44:21.996Z,95.79
2022-08-05T06:45:21.304Z,95.09
2022-08-05T06:48:36.959Z,93.99
2022-08-05T06:48:44.293Z,94.39
2022-08-05T06:48:55.923Z,93.79
2022-08-05T06:50:01.200Z,93.39
2022-08-05T06:51:00.093Z,92.99
2022-08-05T07:04:00.553Z,93.93
2022-08-05T07:21:17.659Z,92.79
2022-08-05T07:34:33.399Z,92.59
2022-08-05T08:12:35.457Z,85.66
2022-08-05T08:17:43.987Z,85.41
2022-08-05T08:17:52.653Z,85.94
2022-08-05T08:18:49.978Z,85.94
2022-08-05T08:20:22.360Z,86.64
2022-08-05T08:21:02.082Z,87.24
2022-08-05T08:22:16.592Z,87.24
2022-08-05T08:24:02.164Z,87.28
2022-08-05T08:27:10.740Z,87.48
2022-08-05T08:27:18.420Z,87.78
2022-08-05T08:28:18.862Z,87.98
2022-08-05T08:29:29.420Z,87.98
2022-08-05T08:30:27.648Z,88.28
2022-08-05T08:31:18.404Z,88.58
2022-08-05T08:32:18.608Z,87.98
2022-08-05T08:33:19.790Z,87.78
2022-08-05T08:34:18.567Z,88.13
2022-08-05T08:35:17.252Z,87.74
2022-08-05T08:36:48.795Z,87.28
2022-08-05T08:37:19.936Z,87.24
2022-08-05T08:38:18.333Z,87.24
2022-08-05T08:39:18.160Z,85.85
2022-08-05T08:40:17.109Z,86.44
2022-08-05T08:41:17.077Z,87.24
2022-08-05T08:42:50.552Z,87.44
2022-08-05T08:45:20.173Z,86.40
2022-08-05T08:45:20.945Z,86.64
2022-08-05T08:45:26.570Z,86.30
2022-08-05T08:46:18.000Z,85.57
2022-08-05T08:47:47.487Z,85.92
2022-08-05T08:48:42.996Z,85.82
2022-08-05T08:50:22.627Z,84.92
2022-08-05T08:50:29.998Z,84.78
2022-08-05T08:52:02.040Z,85.08
2022-08-05T08:52:18.001Z,83.35
2022-08-05T08:53:16.973Z,83.55
2022-08-05T08:54:17.134Z,82.86
2022-08-05T08:55:19.551Z,81.52
2022-08-05T08:56:18.112Z,81.12
2022-08-05T08:57:17.721Z,82.06
2022-08-05T08:58:16.894Z,81.96
2022-08-05T08:59:19.696Z,82.29
2022-08-05T09:00:19.453Z,80.71
2022-08-05T09:01:18.318Z,82.00
2022-08-05T09:02:17.718Z,82.59
2022-08-05T09:03:19.252Z,82.29
2022-08-05T09:04:16.828Z,82.46
2022-08-05T09:05:18.520Z,81.86
2022-08-05T09:06:21.386Z,82.29
2022-08-05T09:07:19.617Z,81.94
2022-08-05T09:08:17.839Z,83.87
2022-08-05T09:09:17.023Z,84.77
2022-08-05T09:10:16.788Z,83.37
2022-08-05T09:11:17.138Z,83.87
2022-08-05T09:12:19.938Z,83.43
2022-08-05T09:13:16.775Z,82.84
2022-08-05T09:14:56.938Z,84.13
2022-08-05T09:15:17.974Z,84.47
2022-08-05T09:16:16.870Z,84.63
2022-08-05T09:17:42.220Z,83.33
2022-08-05T09:18:17.682Z,84.39
2022-08-05T09:19:16.690Z,84.19
2022-08-05T09:20:36.663Z,82.43
2022-08-05T09:21:20.736Z,82.73
2022-08-05T09:22:36.263Z,83.77
2022-08-05T09:23:19.991Z,84.21
2022-08-05T09:24:16.906Z,84.91
2022-08-05T09:25:24.474Z,84.31
2022-08-05T09:26:20.934Z,84.25
2022-08-05T09:27:18.716Z,84.95
2022-08-05T09:28:21.065Z,84.41
2022-08-05T09:29:18.846Z,85.11
2022-08-05T09:30:16.679Z,85.60
2022-08-05T09:31:23.354Z,85.27
2022-08-05T09:32:40.058Z,84.67
2022-08-05T09:33:17.668Z,83.97
2022-08-05T09:34:16.605Z,83.27
2022-08-05T09:35:26.601Z,82.93
2022-08-05T09:36:17.631Z,82.84
2022-08-05T09:37:16.802Z,83.59
2022-08-05T09:38:27.447Z,82.64
2022-08-05T09:39:21.926Z,82.16
2022-08-05T09:40:24.567Z,81.06
2022-08-05T09:41:16.458Z,81.66
2022-08-05T09:42:28.293Z,79.03
2022-08-05T09:43:17.538Z,80.03
2022-08-05T09:44:16.487Z,80.87
2022-08-05T09:46:02.694Z,81.12
2022-08-05T09:46:18.984Z,81.06
2022-08-05T09:47:18.008Z,81.26
2022-08-05T09:48:16.530Z,81.80
2022-08-05T09:49:19.116Z,82.10
2022-08-05T09:50:17.796Z,83.43
2022-08-05T09:51:29.169Z,82.73
2022-08-05T09:52:16.360Z,83.23
2022-08-05T09:53:26.175Z,82.54
2022-08-05T09:54:21.404Z,81.30
2022-08-05T09:55:57.612Z,81.06
2022-08-05T09:56:17.416Z,81.12
2022-08-05T09:57:23.436Z,79.99
2022-08-05T09:59:41.313Z,79.60
2022-08-05T09:59:45.840Z,79.79
2022-08-05T10:02:10.258Z,79.24
2022-08-05T10:02:14.691Z,78.04
2022-08-05T10:03:15.776Z,79.83
2022-08-05T10:05:35.758Z,80.19
2022-08-05T10:07:14.093Z,79.24
2022-08-05T10:07:20.481Z,79.53
2022-08-05T10:08:37.696Z,80.53
2022-08-05T10:09:27.443Z,80.13
2022-08-05T10:10:15.119Z,78.84
2022-08-05T10:11:10.886Z,78.94
2022-08-05T10:12:18.967Z,79.10
2022-08-05T10:14:33.977Z,79.06
2022-08-05T10:15:34.618Z,78.86
2022-08-05T10:15:38.197Z,79.56
2022-08-05T10:16:52.541Z,78.27
2022-08-05T10:17:40.734Z,78.40
2022-08-05T10:18:38.354Z,78.00
2022-08-05T10:22:34.824Z,77.27
2022-08-05T10:23:55.071Z,76.97
2022-08-05T10:28:09.230Z,76.57
2022-08-05T10:28:41.627Z,76.34
2022-08-05T10:30:41.022Z,75.68
2022-08-05T10:32:48.605Z,75.98
2022-08-05T10:32:51.661Z,75.65
2022-08-05T10:32:52.724Z,76.25
2022-08-05T10:33:42.143Z,75.65
2022-08-05T10:34:41.103Z,75.84
2022-08-05T10:35:44.086Z,75.71
2022-08-05T10:38:02.400Z,74.42
2022-08-05T10:38:59.149Z,74.42
2022-08-05T10:39:10.333Z,73.69
2022-08-05T10:40:45.055Z,73.25
2022-08-05T10:41:06.468Z,72.53
2022-08-05T10:42:05.594Z,72.27
2022-08-05T10:43:05.800Z,73.46
2022-08-05T10:44:07.113Z,73.85
2022-08-05T10:45:21.065Z,73.25
2022-08-05T10:46:07.058Z,74.55
2022-08-05T10:47:05.641Z,72.47
2022-08-05T10:48:31.440Z,73.69
2022-08-05T10:49:26.986Z,74.38
2022-08-05T10:50:31.834Z,73.63
2022-08-05T10:51:22.506Z,74.32
2022-08-05T10:53:39.473Z,74.72
2022-08-05T10:54:38.727Z,74.22
2022-08-05T10:56:05.041Z,74.48
2022-08-05T10:56:38.556Z,72.40
2022-08-05T10:57:38.715Z,72.30
2022-08-05T10:58:48.680Z,72.44
2022-08-05T11:00:02.963Z,73.63
2022-08-05T11:00:45.842Z,73.93
2022-08-05T11:01:55.045Z,74.76
2022-08-05T11:02:43.801Z,74.62
2022-08-05T11:03:39.309Z,74.85
2022-08-05T11:04:42.010Z,74.65
2022-08-05T11:05:37.500Z,74.52
2022-08-05T11:08:36.788Z,74.55
2022-08-05T11:08:39.083Z,74.52
2022-08-05T11:09:32.100Z,73.63
2022-08-05T11:10:22.906Z,73.82
2022-08-05T11:11:21.098Z,73.53
2022-08-05T11:13:54.757Z,74.12
2022-08-05T11:13:55.026Z,73.93
2022-08-05T11:15:01.122Z,73.43
2022-08-05T11:16:00.937Z,73.93
2022-08-05T11:16:58.611Z,72.83
2022-08-05T11:17:57.615Z,73.13
2022-08-05T11:18:51.749Z,72.93
2022-08-05T11:20:10.582Z,73.43
2022-08-05T11:20:50.373Z,73.63
2022-08-05T11:21:49.744Z,74.62
2022-08-05T11:22:50.039Z,74.52
2022-08-05T11:24:05.660Z,74.72
2022-08-05T11:24:50.682Z,74.12
2022-08-05T11:26:04.790Z,74.52
2022-08-05T11:26:50.199Z,74.02
2022-08-05T11:29:15.614Z,73.49
2022-08-05T11:29:31.945Z,73.49
2022-08-05T11:30:17.469Z,73.63
2022-08-05T11:31:54.380Z,74.55
2022-08-05T11:32:18.353Z,75.22
2022-08-05T11:33:21.093Z,75.99
2022-08-05T11:34:22.497Z,76.53
2022-08-05T11:35:18.342Z,77.86
2022-08-05T11:36:34.509Z,79.13
2022-08-05T11:38:28.358Z,80.46
2022-08-05T11:38:29.526Z,79.72
2022-08-05T11:39:18.445Z,80.90
2022-08-05T11:40:18.390Z,81.10
2022-08-05T11:41:56.351Z,81.63
2022-08-05T11:42:18.651Z,81.13
2022-08-05T11:43:17.694Z,81.63
2022-08-05T11:44:40.794Z,82.03
2022-08-05T11:46:15.610Z,82.34
2022-08-05T11:46:32.788Z,82.34
2022-08-05T11:47:22.074Z,81.54
2022-08-05T11:48:18.242Z,81.04
2022-08-05T11:49:17.170Z,81.34
2022-08-05T11:50:17.257Z,81.54
2022-08-05T11:51:44.411Z,81.73
2022-08-05T11:52:18.125Z,81.43
2022-08-05T11:53:17.159Z,81.67
2022-08-05T11:54:17.129Z,81.67
2022-08-05T11:55:17.198Z,81.87
2022-08-05T11:56:17.055Z,82.28
2022-08-05T11:57:25.407Z,82.07
2022-08-05T11:58:18.108Z,81.98
2022-08-05T11:59:17.137Z,82.37
2022-08-05T12:00:17.055Z,82.17
2022-08-05T12:01:19.132Z,81.48
2022-08-05T12:02:30.524Z,81.48
2022-08-05T12:03:24.089Z,81.48
2022-08-05T12:04:18.039Z,81.37
2022-08-05T12:05:18.112Z,80.58
2022-08-05T12:06:17.146Z,80.47
2022-08-05T12:07:17.017Z,80.58
2022-08-05T12:08:18.417Z,79.97
2022-08-05T12:09:19.848Z,80.51
2022-08-05T12:10:18.081Z,81.01
2022-08-05T12:11:20.209Z,81.01
2022-08-05T12:12:16.930Z,80.91
2022-08-05T12:13:47.509Z,80.27
2022-08-05T12:14:18.090Z,80.38
2022-08-05T12:15:16.994Z,79.88
2022-08-05T12:16:16.990Z,79.52
2022-08-05T12:18:04.310Z,80.32
2022-08-05T12:18:18.095Z,81.01
2022-08-05T12:20:26.288Z,81.41
2022-08-05T12:20:30.760Z,81.12
2022-08-05T12:21:17.850Z,81.01
2022-08-05T12:22:19.943Z,81.81
2022-08-05T12:23:17.818Z,81.51
2022-08-05T12:24:17.383Z,81.45
2022-08-05T12:25:16.822Z,80.95
2022-08-05T12:26:16.782Z,81.12
2022-08-05T12:27:21.635Z,81.25
2022-08-05T12:28:17.824Z,81.05
2022-08-05T12:29:17.928Z,81.45
2022-08-05T12:30:17.826Z,81.69
2022-08-05T12:31:23.462Z,81.93
2022-08-05T12:32:17.775Z,82.53
2022-08-05T12:33:27.240Z,83.33
2022-08-05T12:34:21.585Z,83.03
2022-08-05T12:35:21.664Z,83.13
2022-08-05T12:36:16.799Z,83.87
2022-08-05T12:37:17.555Z,84.23
2022-08-05T12:38:17.707Z,83.83
2022-08-05T12:39:16.743Z,83.87
2022-08-05T12:40:26.417Z,83.73
2022-08-05T12:41:17.642Z,83.63
2022-08-05T12:42:16.628Z,82.73
2022-08-05T12:43:20.784Z,82.27
2022-08-05T12:44:21.506Z,82.67
2022-08-05T12:45:16.625Z,82.97
2022-08-05T12:46:17.223Z,83.41
2022-08-05T12:47:17.059Z,82.91
2022-08-05T12:48:27.045Z,83.31
2022-08-05T12:49:19.157Z,83.25
2022-08-05T12:50:17.265Z,83.75
2022-08-05T12:52:10.192Z,84.15
2022-08-05T12:52:46.203Z,84.01
2022-08-05T12:53:55.604Z,83.51
2022-08-05T12:54:47.227Z,83.25
2022-08-05T12:55:46.112Z,84.15
2022-08-05T12:56:46.080Z,84.15
2022-08-05T12:58:52.054Z,82.79
2022-08-05T12:58:52.684Z,83.45
2022-08-05T13:01:57.957Z,83.29
